Time;durP1;ratioP1;P1;durP2;ratioP2;P2;SDS_P1;SDS_P2;PMS_P1;PMS_P2;Temp;Humidity;BMP_temperature;BMP_pressure;BME280_temperature;BME280_humidity;BME280_pressure;Samples;Min_cycle;Max_cycle;Signal;HPM_P1;HPM_P2
2023/08/06 00:00:51;;;;;;;6.77;4.37;;;;;;;14.84;100.00;100246.09;5013900;28;20029;-85
2023/08/06 00:03:16;;;;;;;10.13;3.13;;;;;;;14.89;100.00;100240.09;5028510;28;20041;-85
2023/08/06 00:05:43;;;;;;;6.53;2.93;;;;;;;14.88;100.00;100258.09;5013465;28;20411;-85
2023/08/06 00:08:08;;;;;;;8.35;3.70;;;;;;;14.87;100.00;100263.69;5023425;28;20096;-85
2023/08/06 00:10:33;;;;;;;6.53;3.47;;;;;;;14.86;100.00;100278.16;5013888;28;20112;-85
2023/08/06 00:12:59;;;;;;;6.57;3.67;;;;;;;14.82;100.00;100282.25;5031114;28;20037;-85
2023/08/06 00:15:24;;;;;;;8.10;3.57;;;;;;;14.73;100.00;100273.56;5021516;28;20052;-85
2023/08/06 00:17:49;;;;;;;6.77;5.27;;;;;;;14.73;100.00;100292.38;5013431;28;20029;-85
2023/08/06 00:20:15;;;;;;;8.67;3.43;;;;;;;14.68;100.00;100301.03;5028717;28;20471;-85
2023/08/06 00:22:40;;;;;;;7.67;4.27;;;;;;;14.74;100.00;100324.41;5013602;28;20465;-85
2023/08/06 00:25:09;;;;;;;11.40;3.80;;;;;;;14.75;100.00;100318.03;4996483;28;20025;-86
2023/08/06 00:27:34;;;;;;;11.65;3.92;;;;;;;14.84;100.00;100315.97;5013276;28;20025;-85
2023/08/06 00:29:59;;;;;;;9.63;3.93;;;;;;;14.88;100.00;100300.28;5012835;28;20476;-86
2023/08/06 00:32:25;;;;;;;7.10;4.50;;;;;;;14.89;100.00;100291.19;5013086;28;20487;-85
2023/08/06 00:34:50;;;;;;;9.02;3.60;;;;;;;14.89;100.00;100304.63;5012926;28;20434;-85
2023/08/06 00:37:16;;;;;;;7.70;3.63;;;;;;;14.90;100.00;100322.41;5030860;28;20088;-85
2023/08/06 00:39:43;;;;;;;12.93;4.07;;;;;;;14.95;100.00;100352.19;5013105;28;20366;-85
2023/08/06 00:42:09;;;;;;;8.52;3.40;;;;;;;14.99;100.00;100353.47;5012837;28;20052;-85
2023/08/06 00:44:34;;;;;;;7.70;3.97;;;;;;;14.94;100.00;100345.19;5012681;28;20022;-85
2023/08/06 00:47:01;;;;;;;6.40;4.97;;;;;;;14.81;100.00;100329.00;5012789;28;20124;-86
2023/08/06 00:49:26;;;;;;;;;;;;;;;14.95;100.00;100342.28;5031111;28;20439;-86
2023/08/06 00:51:52;;;;;;;9.52;5.35;;;;;;;14.91;100.00;100335.66;5012837;28;19928;-85
2023/08/06 00:54:17;;;;;;;7.73;4.07;;;;;;;14.93;100.00;100327.38;5028282;28;20124;-85
2023/08/06 00:56:43;;;;;;;10.90;3.97;;;;;;;14.86;100.00;100327.34;5018182;28;20490;-86
2023/08/06 00:59:11;;;;;;;5.80;3.53;;;;;;;14.76;100.00;100303.53;5013230;28;20040;-86
2023/08/06 01:01:37;;;;;;;6.57;3.85;;;;;;;14.97;100.00;100324.09;4996164;28;20029;-85
2023/08/06 01:04:03;;;;;;;9.33;4.00;;;;;;;14.88;100.00;100314.53;5015136;28;20412;-86
2023/08/06 01:06:48;;;;;;;9.20;4.03;;;;;;;14.84;100.00;100325.91;5020326;28;20098;-85
2023/08/06 01:09:32;;;;;;;8.90;4.05;;;;;;;14.74;100.00;100319.03;5028285;28;20076;-87
2023/08/06 01:12:15;;;;;;;7.50;4.15;;;;;;;14.70;100.00;100325.84;5027029;28;20823;-87
2023/08/06 01:14:51;;;;;;;12.25;5.07;;;;;;;14.61;100.00;100319.00;5011466;28;20051;-85
2023/08/06 01:17:17;;;;;;;12.35;4.43;;;;;;;14.66;100.00;100329.16;5011485;28;20384;-85
2023/08/06 01:19:43;;;;;;;8.63;4.45;;;;;;;14.53;100.00;100311.06;5029624;28;20033;-85
2023/08/06 01:22:08;;;;;;;12.47;4.60;;;;;;;14.53;100.00;100321.78;5028523;28;20049;-85
2023/08/06 01:24:34;;;;;;;9.07;4.53;;;;;;;14.57;100.00;100323.09;4995269;28;20268;-86
2023/08/06 01:27:17;;;;;;;11.68;4.38;;;;;;;14.58;100.00;100319.38;5028394;28;20396;-86
2023/08/06 01:29:48;;;;;;;9.40;4.75;;;;;;;14.70;100.00;100317.78;5022411;28;20136;-85
2023/08/06 01:32:16;;;;;;;8.45;4.22;;;;;;;14.68;100.00;100308.25;5010255;28;20038;-86
2023/08/06 01:34:44;;;;;;;7.38;3.95;;;;;;;14.62;100.00;100304.53;5010643;28;20018;-85
2023/08/06 01:37:10;;;;;;;7.13;3.80;;;;;;;14.58;100.00;100314.00;5011560;28;20071;-85
2023/08/06 01:39:36;;;;;;;13.10;4.03;;;;;;;14.55;100.00;100309.03;4988858;28;20475;-86
2023/08/06 01:42:03;;;;;;;10.85;4.72;;;;;;;14.54;100.00;100302.00;5027601;28;20128;-85
2023/08/06 01:44:28;;;;;;;15.13;5.75;;;;;;;14.49;100.00;100294.53;5008217;28;20113;-85
2023/08/06 01:46:54;;;;;;;8.63;4.13;;;;;;;14.59;100.00;100315.66;5023717;28;20087;-85
2023/08/06 01:49:19;;;;;;;12.50;5.23;;;;;;;14.39;100.00;100298.59;5011429;28;20268;-85
2023/08/06 01:51:44;;;;;;;6.27;4.37;;;;;;;14.36;100.00;100300.63;5028200;28;20029;-85
2023/08/06 01:54:10;;;;;;;7.23;4.30;;;;;;;14.39;100.00;100309.31;5010518;28;20033;-85
2023/08/06 01:56:35;;;;;;;7.70;4.00;;;;;;;14.45;100.00;100301.31;5027628;28;20116;-85
2023/08/06 01:59:01;;;;;;;9.70;4.43;;;;;;;14.47;100.00;100295.72;5013001;28;20092;-86
2023/08/06 02:01:26;;;;;;;22.08;5.10;;;;;;;14.52;100.00;100287.91;4994690;28;20156;-85
2023/08/06 02:03:52;;;;;;;6.27;4.07;;;;;;;14.57;100.00;100285.50;5019098;28;20029;-85
2023/08/06 02:06:17;;;;;;;8.97;4.47;;;;;;;14.54;100.00;100283.22;5011475;28;20037;-86
2023/08/06 02:08:44;;;;;;;7.43;4.38;;;;;;;14.52;100.00;100285.22;5010520;28;20068;-85
2023/08/06 02:11:09;;;;;;;10.07;3.90;;;;;;;14.59;100.00;100283.44;5010951;28;20033;-85
2023/08/06 02:13:35;;;;;;;6.40;4.07;;;;;;;14.60;100.00;100284.25;5010678;28;20021;-86
2023/08/06 02:16:00;;;;;;;5.80;3.77;;;;;;;14.57;100.00;100277.44;5002876;28;20064;-85
2023/08/06 02:18:25;;;;;;;9.27;3.83;;;;;;;14.63;100.00;100284.66;5026163;28;20032;-85
2023/08/06 02:20:58;;;;;;;5.73;4.40;;;;;;;14.54;100.00;100264.41;5011460;28;20030;-85
2023/08/06 02:23:24;;;;;;;14.48;5.43;;;;;;;14.63;100.00;100273.09;5010391;28;20071;-85
2023/08/06 02:26:03;;;;;;;13.55;4.40;;;;;;;14.59;100.00;100277.25;4996761;28;20009;-86
2023/08/06 02:28:29;;;;;;;10.50;4.40;;;;;;;14.71;100.00;100283.69;4994706;28;20038;-86
2023/08/06 02:30:54;;;;;;;9.40;4.45;;;;;;;14.77;100.00;100281.03;5011014;28;20056;-85
2023/08/06 02:33:20;;;;;;;12.17;4.87;;;;;;;14.81;100.00;100278.75;5003743;28;20029;-86
2023/08/06 02:35:45;;;;;;;8.53;4.63;;;;;;;14.78;100.00;100266.56;5010634;28;20018;-85
2023/08/06 02:38:10;;;;;;;7.97;4.23;;;;;;;14.83;100.00;100267.81;5013040;28;20033;-86
2023/08/06 02:40:36;;;;;;;8.20;4.40;;;;;;;14.67;100.00;100239.44;5027686;28;20030;-86
2023/08/06 02:43:01;;;;;;;9.13;4.70;;;;;;;14.71;100.00;100249.59;5026829;28;20518;-86
2023/08/06 02:45:26;;;;;;;13.77;5.23;;;;;;;14.81;100.00;100253.75;5015779;28;20029;-85
2023/08/06 02:47:52;;;;;;;8.43;4.17;;;;;;;14.73;100.00;100252.09;5023699;28;20029;-85
2023/08/06 02:50:17;;;;;;;10.57;4.47;;;;;;;14.82;100.00;100250.00;5012305;28;20713;-85
2023/08/06 02:52:43;;;;;;;9.27;4.27;;;;;;;14.87;100.00;100242.19;5010962;28;20485;-85
2023/08/06 02:55:09;;;;;;;8.40;4.50;;;;;;;14.82;100.00;100228.53;5017019;28;20040;-85
2023/08/06 02:57:38;;;;;;;6.82;3.60;;;;;;;14.79;100.00;100224.38;5010647;28;20060;-86
2023/08/06 03:00:04;;;;;;;7.50;4.60;;;;;;;14.83;100.00;100224.81;5012979;28;20507;-86
2023/08/06 03:02:30;;;;;;;7.28;4.60;;;;;;;14.86;100.00;100221.72;5026925;28;20096;-85
2023/08/06 03:05:15;;;;;;;13.82;5.40;;;;;;;14.79;100.00;100216.31;5012795;28;20028;-85
2023/08/06 03:07:44;;;;;;;6.68;4.25;;;;;;;14.84;100.00;100216.53;5010583;28;20039;-86
2023/08/06 03:10:16;;;;;;;8.55;4.78;;;;;;;14.86;100.00;100208.28;5011504;28;20404;-86
2023/08/06 03:12:42;;;;;;;10.00;4.60;;;;;;;14.88;100.00;100216.97;5026877;28;20574;-85
2023/08/06 03:15:08;;;;;;;7.43;4.37;;;;;;;14.80;100.00;100207.25;5018406;28;20137;-85
2023/08/06 03:17:34;;;;;;;10.85;4.72;;;;;;;14.80;100.00;100201.00;5027175;28;20073;-85
2023/08/06 03:19:59;;;;;;;11.40;5.90;;;;;;;14.90;100.00;100196.09;5010690;28;20057;-85
2023/08/06 03:22:25;;;;;;;9.35;4.40;;;;;;;14.74;100.00;100184.69;5026778;28;20065;-86
2023/08/06 03:24:51;;;;;;;11.67;4.47;;;;;;;14.71;100.00;100189.66;5018415;28;20500;-86
2023/08/06 03:27:18;;;;;;;8.23;4.25;;;;;;;14.85;100.00;100207.44;5025745;28;20033;-85
2023/08/06 03:29:43;;;;;;;11.17;4.47;;;;;;;14.95;100.00;100207.88;5009484;28;20487;-85
2023/08/06 03:32:09;;;;;;;14.07;4.87;;;;;;;14.78;100.00;100199.38;5024243;28;20080;-85
2023/08/06 03:34:34;;;;;;;7.68;4.97;;;;;;;14.85;100.00;100206.63;5010333;28;20025;-86
2023/08/06 03:37:00;;;;;;;11.30;5.57;;;;;;;14.81;100.00;100197.31;5012313;28;20045;-86
2023/08/06 03:39:26;;;;;;;12.00;4.87;;;;;;;14.83;100.00;100192.56;5014338;28;20021;-85
2023/08/06 03:41:51;;;;;;;10.93;4.40;;;;;;;14.92;100.00;100192.16;5014532;28;20080;-85
2023/08/06 03:44:17;;;;;;;13.37;5.97;;;;;;;14.90;100.00;100172.72;5020188;28;20575;-85
2023/08/06 03:46:43;;;;;;;9.57;4.43;;;;;;;14.87;100.00;100181.22;5030498;28;20044;-85
2023/08/06 03:49:09;;;;;;;8.70;5.40;;;;;;;14.86;100.00;100182.22;5005982;28;20034;-85
2023/08/06 03:51:34;;;;;;;13.77;4.83;;;;;;;14.93;100.00;100187.63;5030647;28;20116;-85
2023/08/06 03:54:00;;;;;;;10.38;5.43;;;;;;;14.80;100.00;100183.06;5013467;28;20022;-86
2023/08/06 03:56:26;;;;;;;14.13;6.73;;;;;;;14.68;100.00;100174.75;5030282;28;20454;-86
2023/08/06 03:58:51;;;;;;;11.70;5.60;;;;;;;14.76;100.00;100188.00;5014348;28;20025;-85
2023/08/06 04:01:17;;;;;;;8.77;6.27;;;;;;;14.75;100.00;100182.84;5030605;28;20074;-86
2023/08/06 04:03:46;;;;;;;13.32;5.53;;;;;;;14.74;100.00;100179.31;5020056;28;20025;-86
2023/08/06 04:06:12;;;;;;;7.43;4.82;;;;;;;14.79;100.00;100197.50;5026868;28;20049;-86
2023/08/06 04:08:38;;;;;;;16.25;5.80;;;;;;;14.84;100.00;100188.84;5019174;28;20025;-86
2023/08/06 04:11:03;;;;;;;13.57;5.60;;;;;;;14.77;100.00;100175.38;5013112;28;20029;-85
2023/08/06 04:13:28;;;;;;;10.27;5.80;;;;;;;14.87;100.00;100173.16;5028674;28;20395;-86
2023/08/06 04:16:00;;;;;;;11.63;5.45;;;;;;;14.87;100.00;100162.41;5016471;28;20124;-85
2023/08/06 04:18:26;;;;;;;11.43;5.65;;;;;;;14.85;100.00;100148.34;5012955;28;20561;-86
2023/08/06 04:20:52;;;;;;;9.33;5.50;;;;;;;14.77;100.00;100149.38;5013050;28;20133;-86
2023/08/06 04:23:18;;;;;;;9.75;5.63;;;;;;;14.69;100.00;100162.16;5020835;28;20041;-86
2023/08/06 04:25:43;;;;;;;13.67;5.83;;;;;;;14.77;100.00;100170.84;5012830;28;20052;-86
2023/08/06 04:28:09;;;;;;;11.87;5.40;;;;;;;14.82;100.00;100174.78;4996277;28;20041;-86
2023/08/06 04:30:34;;;;;;;8.30;5.83;;;;;;;14.80;100.00;100176.84;5012547;28;20439;-85
2023/08/06 04:33:01;;;;;;;10.02;4.88;;;;;;;14.86;100.00;100182.22;5028464;28;20029;-86
2023/08/06 04:35:26;;;;;;;12.05;4.93;;;;;;;14.89;100.00;100170.22;5012218;28;20030;-86
2023/08/06 04:37:52;;;;;;;11.40;5.00;;;;;;;14.98;100.00;100169.84;5012524;28;20128;-86
2023/08/06 04:40:18;;;;;;;10.80;5.87;;;;;;;15.09;100.00;100171.09;5028984;28;20108;-86
2023/08/06 04:42:43;;;;;;;13.93;4.73;;;;;;;15.04;100.00;100154.75;5028225;28;20099;-85
2023/08/06 04:45:09;;;;;;;9.83;4.80;;;;;;;15.02;100.00;100147.94;5031943;28;20039;-85
2023/08/06 04:47:34;;;;;;;10.40;4.63;;;;;;;15.11;100.00;100162.81;5015400;28;20033;-88
2023/08/06 04:49:59;;;;;;;14.67;5.87;;;;;;;15.09;100.00;100154.13;5017786;28;20033;-86
2023/08/06 04:52:28;;;;;;;10.40;4.60;;;;;;;15.12;100.00;100156.41;5013805;28;20033;-86
2023/08/06 04:54:54;;;;;;;9.98;4.72;;;;;;;15.23;100.00;100149.59;5028433;28;20404;-86
2023/08/06 04:57:19;;;;;;;10.88;5.20;;;;;;;15.09;100.00;100138.81;5028427;28;20037;-86
2023/08/06 04:59:45;;;;;;;11.30;5.03;;;;;;;15.16;100.00;100131.59;5018397;28;20032;-86
2023/08/06 05:02:10;;;;;;;8.63;4.50;;;;;;;15.18;100.00;100120.63;5011752;28;20044;-86
2023/08/06 05:04:36;;;;;;;7.87;3.70;;;;;;;15.18;100.00;100110.69;5028310;28;20040;-85
2023/08/06 05:07:01;;;;;;;7.07;3.90;;;;;;;15.31;100.00;100117.09;5028917;28;20064;-86
2023/08/06 05:09:26;;;;;;;9.57;4.40;;;;;;;15.24;100.00;100108.22;5012326;28;20029;-85
2023/08/06 05:11:52;;;;;;;11.23;4.73;;;;;;;15.15;100.00;100113.81;5028653;28;20029;-86
2023/08/06 05:14:17;;;;;;;8.47;4.47;;;;;;;15.28;100.00;100117.53;5023189;28;20117;-86
2023/08/06 05:16:42;;;;;;;12.10;3.83;;;;;;;15.33;100.00;100123.09;5006555;28;20029;-86
2023/08/06 05:19:08;;;;;;;6.47;3.83;;;;;;;15.39;100.00;100117.72;5022410;28;20515;-85
2023/08/06 05:21:33;;;;;;;9.43;3.60;;;;;;;15.47;100.00;100118.53;5028806;28;20450;-85
2023/08/06 05:23:58;;;;;;;6.73;3.83;;;;;;;15.42;100.00;100111.09;5012144;28;20107;-85
2023/08/06 05:26:24;;;;;;;8.33;3.73;;;;;;;15.46;100.00;100103.44;5011777;28;20044;-86
2023/08/06 05:28:49;;;;;;;14.80;3.67;;;;;;;15.54;100.00;100106.69;5000597;23;20499;-73
2023/08/06 05:31:14;;;;;;;9.53;4.40;;;;;;;15.34;100.00;100085.25;5004431;28;20394;-72
2023/08/06 05:33:40;;;;;;;7.37;3.73;;;;;;;15.45;100.00;100099.06;5001102;28;20402;-72
2023/08/06 05:36:05;;;;;;;12.03;4.30;;;;;;;15.41;100.00;100088.75;5005769;28;20038;-72
2023/08/06 05:38:30;;;;;;;9.90;3.77;;;;;;;15.40;100.00;100080.88;4987202;28;20040;-72
2023/08/06 05:40:56;;;;;;;6.50;3.70;;;;;;;15.46;100.00;100084.59;4986200;28;20023;-72
2023/08/06 05:43:22;;;;;;;9.17;3.07;;;;;;;15.52;100.00;100079.22;4986326;28;20614;-72
2023/08/06 05:45:49;;;;;;;10.93;3.80;;;;;;;15.49;100.00;100068.03;4986573;28;20469;-73
2023/08/06 05:48:15;;;;;;;7.75;3.63;;;;;;;15.56;100.00;100083.09;5027202;22;20109;-73
2023/08/06 05:50:40;;;;;;;8.13;3.87;;;;;;;15.69;100.00;100089.50;4969728;28;20038;-73
2023/08/06 05:53:05;;;;;;;7.80;3.50;;;;;;;15.75;100.00;100088.69;4986477;28;20030;-73
2023/08/06 05:55:32;;;;;;;8.63;3.10;;;;;;;15.79;100.00;100079.16;4986516;28;20042;-73
2023/08/06 05:57:57;;;;;;;;;;;;;;;15.80;100.00;100070.03;5001634;28;20466;-73
2023/08/06 06:00:22;;;;;;;8.95;3.47;;;;;;;15.82;100.00;100052.63;4982398;28;19917;-73
2023/08/06 06:02:48;;;;;;;8.37;3.30;;;;;;;15.86;100.00;100046.81;4983942;28;20025;-73
2023/08/06 06:05:13;;;;;;;12.17;3.93;;;;;;;15.81;100.00;100044.78;4965013;28;20030;-73
2023/08/06 06:07:39;;;;;;;7.60;3.70;;;;;;;15.89;100.00;100047.19;4974747;28;20083;-73
2023/08/06 06:10:05;;;;;;;7.80;3.80;;;;;;;15.98;100.00;100058.56;4983397;28;20071;-73
2023/08/06 06:12:30;;;;;;;8.20;3.15;;;;;;;16.01;100.00;100050.91;4998061;28;20026;-73
2023/08/06 06:14:55;;;;;;;10.43;3.80;;;;;;;16.06;100.00;100035.94;4983495;28;20102;-73
2023/08/06 06:17:21;;;;;;;6.80;3.00;;;;;;;15.96;100.00;100012.19;4982534;28;20030;-73
2023/08/06 06:19:46;;;;;;;8.68;3.83;;;;;;;16.00;100.00;100011.53;4966374;28;20548;-73
2023/08/06 06:22:12;;;;;;;10.23;3.80;;;;;;;16.07;100.00;100021.47;4964608;28;20062;-73
2023/08/06 06:24:37;;;;;;;8.23;3.53;;;;;;;15.89;100.00;99993.38;4965843;28;20141;-73
2023/08/06 06:27:03;;;;;;;3.73;3.10;;;;;;;16.01;100.00;99994.34;4965820;28;20053;-73
2023/08/06 06:29:28;;;;;;;8.98;3.30;;;;;;;16.06;100.00;99991.00;4982053;28;20035;-73
2023/08/06 06:31:54;;;;;;;9.50;3.60;;;;;;;16.25;100.00;99989.22;4982107;28;20022;-73
2023/08/06 06:34:19;;;;;;;5.60;3.93;;;;;;;16.32;100.00;99990.00;4964063;28;20048;-73
2023/08/06 06:36:44;;;;;;;10.07;4.23;;;;;;;16.23;100.00;99953.59;4966060;28;20034;-73
2023/08/06 06:39:10;;;;;;;5.87;3.50;;;;;;;16.32;100.00;99960.38;4965051;28;20046;-73
2023/08/06 06:41:35;;;;;;;8.38;3.40;;;;;;;16.33;100.00;99961.19;4983726;28;20067;-73
2023/08/06 06:44:09;;;;;;;9.65;3.25;;;;;;;16.36;100.00;99956.19;4972581;28;20037;-73
2023/08/06 06:46:35;;;;;;;6.33;3.23;;;;;;;16.27;100.00;99965.56;4982999;28;20417;-73
2023/08/06 06:49:00;;;;;;;14.27;3.63;;;;;;;16.51;100.00;99990.06;4960169;28;20691;-73
2023/08/06 06:51:25;;;;;;;7.77;3.00;;;;;;;16.55;100.00;99980.47;4998815;28;20054;-73
2023/08/06 06:53:51;;;;;;;9.30;2.83;;;;;;;16.63;100.00;99972.13;4982713;28;20428;-73
2023/08/06 06:56:16;;;;;;;8.97;3.13;;;;;;;16.83;100.00;99990.84;4980832;28;20481;-73
2023/08/06 06:58:41;;;;;;;5.53;3.13;;;;;;;16.88;100.00;99970.28;4983174;28;20064;-73
2023/08/06 07:01:07;;;;;;;10.17;3.07;;;;;;;16.80;100.00;99919.31;4982636;28;20040;-73
2023/08/06 07:03:32;;;;;;;8.80;3.60;;;;;;;16.91;100.00;99922.34;4965280;28;20115;-73
2023/08/06 07:05:59;;;;;;;7.57;3.03;;;;;;;16.84;100.00;99909.75;4997805;28;20042;-73
2023/08/06 07:08:25;;;;;;;13.50;3.17;;;;;;;16.91;100.00;99908.88;4964535;28;20031;-73
2023/08/06 07:10:50;;;;;;;5.22;3.00;;;;;;;17.11;100.00;99914.84;4966012;28;20033;-73
2023/08/06 07:13:16;;;;;;;6.10;2.67;;;;;;;17.18;100.00;99885.09;4985095;28;20465;-73
2023/08/06 07:15:42;;;;;;;8.40;3.17;;;;;;;17.44;100.00;99905.50;4986656;28;20789;-73
2023/08/06 07:18:07;;;;;;;5.10;3.45;;;;;;;17.47;100.00;99830.34;5000971;28;20401;-74
2023/08/06 07:20:34;;;;;;;9.73;2.70;;;;;;;17.66;100.00;99849.97;4968641;28;20052;-73
2023/08/06 07:22:59;;;;;;;7.03;3.42;;;;;;;17.97;100.00;99869.66;4968797;28;20085;-73
2023/08/06 07:25:25;;;;;;;4.50;2.60;;;;;;;18.07;100.00;99778.06;4967846;28;20042;-73
2023/08/06 07:27:50;;;;;;;3.57;2.60;;;;;;;18.11;100.00;99783.84;4969077;28;20031;-73
2023/08/06 07:30:16;;;;;;;8.13;2.83;;;;;;;18.18;100.00;99743.22;4968971;28;20031;-73
2023/08/06 07:32:41;;;;;;;5.23;2.50;;;;;;;18.21;100.00;99694.91;4968972;28;20540;-73
2023/08/06 07:35:09;;;;;;;6.60;3.23;;;;;;;18.40;100.00;99684.75;4967550;28;20959;-73
2023/08/06 07:37:34;;;;;;;7.38;2.45;;;;;;;18.04;100.00;99570.59;4968627;28;20025;-73
2023/08/06 07:40:00;;;;;;;5.37;2.60;;;;;;;17.58;100.00;99599.31;4962604;28;20034;-73
2023/08/06 07:42:25;;;;;;;9.13;2.50;;;;;;;17.66;100.00;99603.53;4974434;28;20709;-73
2023/08/06 07:44:55;;;;;;;8.87;2.50;;;;;;;17.72;100.00;99652.00;4962087;28;20507;-73
2023/08/06 07:47:21;;;;;;;7.13;2.53;;;;;;;17.70;100.00;99624.44;4961718;28;20042;-73
2023/08/06 07:49:46;;;;;;;4.40;2.50;;;;;;;17.83;100.00;99625.25;4987979;28;20347;-73
2023/08/06 07:52:14;;;;;;;2.93;2.30;;;;;;;18.07;100.00;99659.25;4967738;28;20749;-73
2023/08/06 07:54:39;;;;;;;7.38;2.67;;;;;;;17.97;100.00;99561.81;4959162;28;20023;-73
2023/08/06 07:57:05;;;;;;;6.97;2.70;;;;;;;17.78;100.00;99561.16;4986825;28;20061;-73
2023/08/06 07:59:30;;;;;;;6.30;2.63;;;;;;;18.22;100.00;99703.88;4985623;28;20043;-73
2023/08/06 08:01:56;;;;;;;7.27;2.60;;;;;;;18.49;100.00;99647.38;4951429;28;20038;-73
2023/08/06 08:04:21;;;;;;;5.97;2.70;;;;;;;18.41;100.00;99489.16;4967748;28;21150;-73
2023/08/06 08:06:47;;;;;;;3.27;2.60;;;;;;;17.86;100.00;99400.69;4971350;28;20035;-73
2023/08/06 08:09:13;;;;;;;5.75;2.17;;;;;;;18.16;100.00;99511.16;4978793;28;20042;-73
2023/08/06 08:11:39;;;;;;;4.78;2.10;;;;;;;18.50;100.00;99560.66;4977535;28;20039;-73
2023/08/06 08:14:04;;;;;;;4.55;2.38;;;;;;;18.55;100.00;99541.84;4964095;28;20026;-73
2023/08/06 08:16:29;;;;;;;9.67;2.83;;;;;;;18.36;100.00;99413.44;4980383;28;20064;-73
2023/08/06 08:18:55;;;;;;;5.00;2.13;;;;;;;18.26;100.00;99387.09;4976555;28;20450;-73
2023/08/06 08:21:20;;;;;;;6.90;2.77;;;;;;;17.81;100.00;99404.13;4986814;28;20041;-73
2023/08/06 08:23:45;;;;;;;7.40;2.37;;;;;;;18.01;100.00;99497.38;4962862;28;20031;-74
2023/08/06 08:26:11;;;;;;;3.83;2.37;;;;;;;18.62;100.00;99600.34;4967072;28;20480;-73
2023/08/06 08:28:36;;;;;;;3.90;2.10;;;;;;;18.98;100.00;99685.63;4983611;28;20192;-73
2023/08/06 08:31:01;;;;;;;7.10;2.13;;;;;;;18.57;100.00;99455.09;4983864;28;20130;-73
2023/08/06 08:33:27;;;;;;;3.33;1.90;;;;;;;18.74;100.00;99512.69;4984340;28;20500;-73
2023/08/06 08:35:55;;;;;;;3.87;1.97;;;;;;;18.62;100.00;99517.34;4990636;28;20100;-73
2023/08/06 08:38:20;;;;;;;6.78;1.95;;;;;;;19.13;100.00;99639.91;4975938;28;20026;-73
2023/08/06 08:40:49;;;;;;;2.93;1.83;;;;;;;19.20;100.00;99536.94;4971868;28;20097;-73
2023/08/06 08:43:15;;;;;;;4.15;2.15;;;;;;;19.44;100.00;99564.59;4980327;28;20397;-73
2023/08/06 08:45:42;;;;;;;3.78;1.85;;;;;;;19.47;100.00;99545.16;4976693;28;20129;-73
2023/08/06 08:48:10;;;;;;;7.15;2.50;;;;;;;19.49;100.00;99437.44;4977410;28;20465;-73
2023/08/06 08:50:35;;;;;;;2.50;1.90;;;;;;;19.49;100.00;99410.38;4952629;28;20031;-73
2023/08/06 08:53:01;;;;;;;3.87;2.20;;;;;;;19.64;100.00;99523.44;4970067;28;20027;-73
2023/08/06 08:55:26;;;;;;;3.17;1.90;;;;;;;19.60;100.00;99449.22;4987621;28;20886;-73
2023/08/06 08:57:52;;;;;;;5.07;2.30;;;;;;;19.32;100.00;99361.75;4961145;28;20039;-73
2023/08/06 09:00:17;;;;;;;5.13;2.10;;;;;;;19.02;100.00;99402.78;4966872;28;20576;-73
2023/08/06 09:02:44;;;;;;;4.67;2.40;;;;;;;19.27;100.00;99515.94;4985093;28;20029;-73
2023/08/06 09:05:10;;;;;;;3.60;1.98;;;;;;;18.89;100.00;99528.34;4973357;28;20470;-73
2023/08/06 09:07:45;;;;;;;4.85;2.15;;;;;;;18.92;100.00;99518.94;4952332;28;20027;-73
2023/08/06 09:10:13;;;;;;;4.43;2.00;;;;;;;19.18;100.00;99625.66;4957186;28;20482;-73
2023/08/06 09:12:39;;;;;;;7.50;2.65;;;;;;;19.37;100.00;99642.44;4987967;28;20054;-73
2023/08/06 09:15:05;;;;;;;6.55;1.90;;;;;;;19.46;100.00;99638.25;4949041;28;20490;-73
2023/08/06 09:17:31;;;;;;;4.35;1.60;;;;;;;19.06;100.00;99471.53;4959180;28;20481;-73
2023/08/06 09:19:56;;;;;;;4.03;1.85;;;;;;;19.15;100.00;99593.66;4975413;28;20037;-73
2023/08/06 09:22:23;;;;;;;4.90;2.47;;;;;;;19.25;100.00;99576.78;4962401;28;20026;-73
2023/08/06 09:24:48;;;;;;;6.30;2.28;;;;;;;18.91;100.00;99511.88;4975663;28;20470;-73
2023/08/06 09:27:14;;;;;;;5.07;1.93;;;;;;;19.14;100.00;99628.00;4976864;28;20026;-73
2023/08/06 09:29:46;;;;;;;3.20;2.20;;;;;;;19.39;100.00;99641.13;4964640;28;20054;-73
2023/08/06 09:32:13;;;;;;;7.20;2.13;;;;;;;19.17;100.00;99583.41;5000199;28;20038;-73
2023/08/06 09:34:40;;;;;;;5.50;2.05;;;;;;;19.43;100.00;99643.31;4975251;28;20022;-73
2023/08/06 09:37:05;;;;;;;4.60;2.13;;;;;;;19.58;100.00;99713.97;4975665;28;20516;-73
2023/08/06 09:39:31;;;;;;;2.70;2.07;;;;;;;19.02;100.00;99559.66;4967506;28;20027;-73
2023/08/06 09:42:01;;;;;;;8.07;2.63;;;;;;;19.56;100.00;99613.22;4980859;28;20149;-73
2023/08/06 09:44:28;;;;;;;4.78;1.95;;;;;;;19.58;100.00;99538.00;4982489;28;20293;-73
2023/08/06 09:46:54;;;;;;;5.47;1.85;;;;;;;19.51;100.00;99415.56;4939999;28;20018;-73
2023/08/06 09:49:27;;;;;;;4.45;1.90;;;;;;;19.95;100.00;99503.00;4977051;28;20101;-73
2023/08/06 09:51:55;;;;;;;5.82;2.30;;;;;;;20.18;100.00;99463.94;4980348;28;20038;-74
2023/08/06 09:54:22;;;;;;;11.13;2.22;;;;;;;20.21;100.00;99474.25;4969904;28;20277;-73
2023/08/06 09:56:48;;;;;;;6.53;2.53;;;;;;;19.87;100.00;99315.75;4980754;28;20198;-74
2023/08/06 09:59:17;;;;;;;2.47;1.80;;;;;;;20.21;100.00;99444.44;4994206;28;20131;-73
2023/08/06 10:01:43;;;;;;;5.30;2.00;;;;;;;19.40;100.00;99179.16;4971120;28;20137;-73
2023/08/06 10:04:10;;;;;;;4.47;1.67;;;;;;;19.53;100.00;99395.28;4984809;28;20390;-73
2023/08/06 10:06:36;;;;;;;3.25;1.95;;;;;;;19.75;100.00;99175.94;4992886;28;20105;-73
2023/08/06 10:09:02;;;;;;;2.67;1.58;;;;;;;19.81;100.00;99217.41;4973815;28;20026;-73
2023/08/06 10:11:28;;;;;;;;;;;;;;;20.15;100.00;99195.41;4991303;28;20046;-73
2023/08/06 10:14:08;;;;;;;5.00;1.73;;;;;;;20.28;100.00;99226.63;4988461;28;20407;-73
2023/08/06 10:16:34;;;;;;;4.13;2.15;;;;;;;20.39;100.00;99182.22;4983707;28;20034;-73
2023/08/06 10:19:01;;;;;;;2.85;1.67;;;;;;;20.22;100.00;99055.06;4989655;28;20072;-73
2023/08/06 10:21:30;;;;;;;4.03;1.95;;;;;;;20.34;100.00;99074.59;4972064;28;20046;-73
2023/08/06 10:23:56;;;;;;;7.70;2.15;;;;;;;20.55;100.00;99167.63;4984449;28;20014;-73
2023/08/06 10:26:25;;;;;;;2.42;1.50;;;;;;;20.74;100.00;99219.50;4972052;28;20037;-73
2023/08/06 10:28:50;;;;;;;4.50;1.77;;;;;;;20.86;100.00;99160.44;4999665;28;20489;-73
2023/08/06 10:31:16;;;;;;;4.53;1.83;;;;;;;20.71;100.00;99187.50;4980998;28;20062;-74
2023/08/06 10:33:43;;;;;;;5.03;2.20;;;;;;;20.57;100.00;99275.84;4977818;28;20027;-73
2023/08/06 10:36:09;;;;;;;4.45;1.60;;;;;;;20.79;100.00;99167.19;4969644;28;20494;-73
2023/08/06 10:38:37;;;;;;;4.13;2.13;;;;;;;20.72;100.00;99148.47;4958381;28;20034;-73
2023/08/06 10:41:03;;;;;;;5.00;1.60;;;;;;;20.43;100.00;99099.31;4970211;28;20097;-74
2023/08/06 10:43:39;;;;;;;3.53;1.70;;;;;;;20.46;100.00;99396.94;4974126;28;20050;-73
2023/08/06 10:46:20;;;;;;;3.45;1.33;;;;;;;20.23;100.00;99396.25;4982064;28;20033;-73
2023/08/06 10:48:46;;;;;;;3.03;1.45;;;;;;;20.40;100.00;99370.88;4977811;28;20642;-73
2023/08/06 10:51:13;;;;;;;8.75;2.42;;;;;;;20.42;100.00;99439.22;4986949;28;20033;-73
2023/08/06 10:53:41;;;;;;;3.58;1.98;;;;;;;20.37;100.00;99330.72;4958556;28;20039;-74
2023/08/06 10:56:17;;;;;;;3.35;1.70;;;;;;;20.59;100.00;99358.56;4988087;28;20030;-73
2023/08/06 10:58:43;;;;;;;;;;;;;;;20.75;100.00;99307.13;4980077;28;20034;-73
2023/08/06 11:01:10;;;;;;;4.63;1.65;;;;;;;21.41;100.00;99282.91;4979191;28;20325;-73
2023/08/06 11:03:36;;;;;;;5.60;1.90;;;;;;;21.36;100.00;99084.75;4963096;28;20561;-73
2023/08/06 11:06:02;;;;;;;1.65;1.40;;;;;;;21.48;100.00;99090.72;4966570;28;20050;-73
2023/08/06 11:08:29;;;;;;;5.13;1.67;;;;;;;21.49;100.00;98858.88;4984833;28;20039;-73
2023/08/06 11:10:55;;;;;;;4.25;1.63;;;;;;;21.72;100.00;99011.34;4982617;28;20023;-73
2023/08/06 11:13:21;;;;;;;3.55;1.95;;;;;;;22.06;100.00;98912.84;5000190;28;20038;-74
2023/08/06 11:15:47;;;;;;;2.92;1.65;;;;;;;22.25;100.00;98843.13;4987491;28;20032;-73